CheckWX is a tool to help pilots better visualize weather data.  It is not intended as a substitute for an official pre-flight weather briefing.

13:22:09 UTC

KSUX TAF
Sioux Gateway / Col Bud Day Field Airport
Sioux City, Iowa, USA
KSUX 161130Z 1612/1712 31005KT P6SM FEW250 FM161900 35007KT P6SM FEW040 FM170100 02005KT P6SM SCT070 FM170700 VRB03KT P6SM BKN100

Jun-16@
12:00 UTC

Jun-16 @ 12:00 UTC

Jun-16@
19:00 UTC

Jun-16 @ 19:00 UTC

KSUX 161130Z 1612/1712 31005KT P6SM FEW250
Wind
  • 310° at 5 KTS
Cloud Levels
  • Few at 25,000' AGL

Jun-16@
19:00 UTC

Jun-16 @ 19:00 UTC

Jun-17@
01:00 UTC

Jun-17 @ 01:00 UTC

FM161900 35007KT P6SM FEW040

From

From Standard forecast or significant change

Wind
  • 350° at 7 KTS
Cloud Levels
  • Few at 4,000' AGL

Jun-17@
01:00 UTC

Jun-17 @ 01:00 UTC

Jun-17@
07:00 UTC

Jun-17 @ 07:00 UTC

FM170100 02005KT P6SM SCT070

From

From Standard forecast or significant change

Wind
  • 020° at 5 KTS
Cloud Levels
  • Scattered at 7,000' AGL

Jun-17@
07:00 UTC

Jun-17 @ 07:00 UTC

Jun-17@
12:00 UTC

Jun-17 @ 12:00 UTC

FM170700 VRB03KT P6SM BKN100

From

From Standard forecast or significant change

Wind
  • Variable at 3 KTS
Cloud Levels
  • Broken at 10,000' AGL